Time;durP1;ratioP1;P1;durP2;ratioP2;P2;SDS_P1;SDS_P2;PMS_P1;PMS_P2;Temp;Humidity;BMP_temperature;BMP_pressure;BME280_temperature;BME280_humidity;BME280_pressure;Samples;Min_cycle;Max_cycle;Signal;HPM_P1;HPM_P2
2022/06/15 00:00:23;;;;;;;6.40;3.83;;;13.90;95.00;;;;;;5125530;27;20420;-78
2022/06/15 00:02:51;;;;;;;4.33;3.33;;;13.90;95.10;;;;;;5124138;27;20512;-79
2022/06/15 00:05:23;;;;;;;5.10;3.83;;;13.80;95.10;;;;;;5123287;27;20466;-78
2022/06/15 00:07:52;;;;;;;4.63;3.63;;;13.80;95.10;;;;;;5121131;27;20545;-79
2022/06/15 00:10:21;;;;;;;4.67;3.63;;;13.80;95.40;;;;;;5137984;27;20499;-77
2022/06/15 00:12:49;;;;;;;6.07;3.47;;;13.70;95.10;;;;;;5121336;27;20438;-77
2022/06/15 00:15:18;;;;;;;4.23;3.83;;;13.70;95.20;;;;;;5119953;27;20442;-77
2022/06/15 00:17:47;;;;;;;4.57;3.80;;;13.70;95.20;;;;;;5139087;27;20470;-78
2022/06/15 00:20:15;;;;;;;5.30;4.20;;;13.60;95.30;;;;;;5143358;27;20977;-79
2022/06/15 00:22:45;;;;;;;4.70;4.27;;;13.60;95.30;;;;;;5120878;27;20462;-77
2022/06/15 00:25:14;;;;;;;6.20;3.93;;;13.60;95.70;;;;;;5119712;27;20462;-77
2022/06/15 00:27:42;;;;;;;6.47;3.90;;;13.50;95.40;;;;;;5123284;27;21000;-78
2022/06/15 00:30:12;;;;;;;4.90;4.07;;;13.50;95.40;;;;;;5141113;27;20954;-77
2022/06/15 00:32:40;;;;;;;4.27;3.70;;;13.50;95.50;;;;;;5119346;27;20446;-78
2022/06/15 00:35:09;;;;;;;4.80;3.40;;;13.40;95.50;;;;;;5119885;27;20478;-77
2022/06/15 00:37:37;;;;;;;4.30;3.47;;;13.40;95.60;;;;;;5138545;27;20792;-78
2022/06/15 00:40:09;;;;;;;5.37;4.17;;;13.40;95.60;;;;;;5118616;27;20421;-77
2022/06/15 00:42:37;;;;;;;4.57;4.13;;;13.30;95.60;;;;;;5118174;27;20458;-79
2022/06/15 00:45:07;;;;;;;5.23;4.17;;;13.30;95.70;;;;;;5118307;27;20541;-77
2022/06/15 00:47:39;;;;;;;4.10;3.70;;;13.30;95.80;;;;;;5117476;27;20947;-77
2022/06/15 00:50:10;;;;;;;5.30;4.20;;;13.20;95.80;;;;;;5121605;27;21024;-78
2022/06/15 00:52:45;;;;;;;4.30;3.90;;;13.20;95.80;;;;;;5122425;27;20549;-78
2022/06/15 00:55:20;;;;;;;6.00;4.20;;;13.10;95.80;;;;;;5121169;27;20409;-78
2022/06/15 00:57:50;;;;;;;5.40;4.47;;;13.10;95.90;;;;;;5121222;27;20826;-78
2022/06/15 01:00:20;;;;;;;6.07;4.50;;;13.10;95.90;;;;;;5121098;27;20447;-79
2022/06/15 01:02:51;;;;;;;4.40;4.00;;;13.10;95.90;;;;;;5119514;27;20476;-77
2022/06/15 01:05:26;;;;;;;6.17;4.50;;;13.00;95.90;;;;;;5117503;27;20435;-77
2022/06/15 01:08:08;;;;;;;5.13;3.90;;;13.00;95.90;;;;;;5118018;27;20464;-77
2022/06/15 01:10:58;;;;;;;6.00;3.80;;;13.00;96.00;;;;;;5136787;27;20782;-77
2022/06/15 01:13:41;;;;;;;4.63;4.23;;;12.90;95.90;;;;;;5117643;27;20442;-77
2022/06/15 01:16:20;;;;;;;4.47;3.97;;;12.90;96.00;;;;;;5117624;27;20967;-78
2022/06/15 01:18:56;;;;;;;4.57;4.17;;;12.80;96.00;;;;;;5120587;27;20453;-78
2022/06/15 01:21:32;;;;;;;6.10;4.40;;;12.80;96.00;;;;;;5119043;27;20815;-78
2022/06/15 01:24:26;;;;;;;4.03;3.73;;;12.80;96.10;;;;;;5118138;27;20469;-77
2022/06/15 01:27:20;;;;;;;6.70;4.20;;;12.70;96.10;;;;;;5136295;27;20458;-78
2022/06/15 01:30:14;;;;;;;5.17;4.67;;;12.70;96.10;;;;;;5135640;27;20501;-77
2022/06/15 01:32:49;;;;;;;5.23;3.83;;;12.70;96.10;;;;;;5117563;27;20545;-76
2022/06/15 01:35:27;;;;;;;7.23;4.70;;;12.60;96.10;;;;;;5136321;27;20875;-77
2022/06/15 01:38:03;;;;;;;5.10;3.60;;;12.60;96.10;;;;;;5119586;27;20449;-78
2022/06/15 01:40:38;;;;;;;5.27;3.97;;;12.60;96.20;;;;;;5119211;27;20506;-76
2022/06/15 01:43:11;;;;;;;3.97;3.57;;;12.60;96.20;;;;;;5117426;27;20465;-76
2022/06/15 01:45:42;;;;;;;4.47;3.87;;;12.50;96.20;;;;;;5117077;27;21048;-77
2022/06/15 01:48:14;;;;;;;6.37;4.23;;;12.50;96.20;;;;;;5116824;27;21038;-76
2022/06/15 01:50:46;;;;;;;4.80;4.13;;;12.50;96.20;;;;;;5117530;27;20439;-76
2022/06/15 01:53:20;;;;;;;4.87;4.37;;;12.40;96.20;;;;;;5136965;27;20490;-77
2022/06/15 01:55:54;;;;;;;6.20;4.70;;;12.40;96.20;;;;;;5116747;27;20483;-76
2022/06/15 01:58:28;;;;;;;5.87;4.77;;;12.40;96.30;;;;;;5117103;27;20461;-77
2022/06/15 02:01:03;;;;;;;7.00;4.53;;;12.40;96.30;;;;;;5117865;27;20807;-76
2022/06/15 02:03:37;;;;;;;6.30;4.83;;;12.30;96.30;;;;;;5118439;27;20458;-79
2022/06/15 02:06:15;;;;;;;4.80;4.40;;;12.30;96.40;;;;;;5116746;27;20530;-76
2022/06/15 02:08:53;;;;;;;5.30;4.80;;;12.30;96.40;;;;;;5122086;27;20525;-79
2022/06/15 02:11:30;;;;;;;6.33;5.03;;;12.20;96.40;;;;;;5122285;27;20433;-79
2022/06/15 02:14:03;;;;;;;4.90;4.40;;;12.20;96.40;;;;;;5121849;27;20434;-79
2022/06/15 02:16:39;;;;;;;4.93;4.50;;;12.20;96.40;;;;;;5121277;28;20883;-79
2022/06/15 02:19:16;;;;;;;5.17;4.70;;;12.20;96.50;;;;;;5122630;27;20459;-78
2022/06/15 02:21:47;;;;;;;5.33;4.77;;;12.10;96.40;;;;;;5122629;28;20456;-78
2022/06/15 02:24:17;;;;;;;5.77;4.90;;;12.10;96.50;;;;;;5121752;27;20464;-78
2022/06/15 02:26:46;;;;;;;7.33;4.27;;;12.10;96.50;;;;;;5121972;27;20963;-78
2022/06/15 02:29:19;;;;;;;4.60;4.20;;;12.00;96.50;;;;;;5121434;27;20450;-78
2022/06/15 02:31:55;;;;;;;4.93;4.40;;;12.00;96.60;;;;;;5121475;27;20487;-78
2022/06/15 02:34:24;;;;;;;6.30;4.50;;;12.00;96.60;;;;;;5120631;28;20986;-78
2022/06/15 02:36:52;;;;;;;4.50;4.10;;;12.00;96.60;;;;;;5120645;28;20458;-78
2022/06/15 02:39:23;;;;;;;5.57;4.73;;;11.90;96.60;;;;;;5121102;28;20928;-78
2022/06/15 02:41:58;;;;;;;5.80;4.67;;;11.90;96.70;;;;;;5121014;28;20446;-78
2022/06/15 02:44:29;;;;;;;5.17;4.37;;;11.90;96.70;;;;;;5120420;28;20453;-78
2022/06/15 02:47:01;;;;;;;5.03;4.53;;;11.90;96.80;;;;;;5120215;28;20473;-78
2022/06/15 02:49:29;;;;;;;4.47;4.07;;;11.80;96.80;;;;;;5136966;28;21027;-77
2022/06/15 02:52:06;;;;;;;4.57;3.70;;;11.80;96.80;;;;;;5117750;28;20943;-77
2022/06/15 02:54:40;;;;;;;5.03;4.20;;;11.80;96.80;;;;;;5117611;28;20450;-77
2022/06/15 02:57:17;;;;;;;4.40;4.00;;;11.70;96.80;;;;;;5117578;28;20469;-78
2022/06/15 02:59:46;;;;;;;5.23;4.23;;;11.70;96.90;;;;;;5117519;28;20499;-77
2022/06/15 03:02:16;;;;;;;6.40;4.63;;;11.70;96.90;;;;;;5117255;28;20564;-77
2022/06/15 03:04:48;;;;;;;4.73;4.30;;;11.70;96.90;;;;;;5117524;28;20470;-78
2022/06/15 03:07:22;;;;;;;5.47;4.20;;;11.60;96.90;;;;;;5117245;28;20624;-77
2022/06/15 03:09:52;;;;;;;6.50;4.40;;;11.60;97.00;;;;;;5120129;27;20442;-78
2022/06/15 03:12:21;;;;;;;4.57;4.17;;;11.60;97.00;;;;;;5121290;27;20446;-78
2022/06/15 03:14:50;;;;;;;5.70;4.80;;;11.60;97.00;;;;;;5121171;27;20515;-77
2022/06/15 03:17:22;;;;;;;5.23;4.17;;;11.60;97.00;;;;;;5121064;27;20990;-78
2022/06/15 03:20:01;;;;;;;6.00;4.90;;;11.60;97.30;;;;;;5121366;27;20796;-78
2022/06/15 03:22:33;;;;;;;4.77;4.37;;;11.50;97.10;;;;;;5121114;27;20800;-77
2022/06/15 03:25:05;;;;;;;5.10;4.70;;;11.50;97.10;;;;;;5120798;27;20994;-78
2022/06/15 03:27:35;;;;;;;9.30;4.70;;;11.50;97.20;;;;;;5121760;27;20457;-77
2022/06/15 03:30:07;;;;;;;4.97;4.57;;;11.50;97.20;;;;;;5120953;27;20820;-77
2022/06/15 03:32:44;;;;;;;11.30;7.37;;;11.50;97.30;;;;;;5122935;27;20438;-78
2022/06/15 03:35:13;;;;;;;11.57;7.80;;;11.40;97.30;;;;;;5123937;27;20434;-79
2022/06/15 03:37:42;;;;;;;17.40;14.60;;;11.40;97.40;;;;;;5122910;27;20845;-78
2022/06/15 03:40:26;;;;;;;22.30;17.83;;;11.40;97.40;;;;;;5124288;27;20442;-78
2022/06/15 03:42:55;;;;;;;21.40;16.37;;;11.40;97.50;;;;;;5123456;27;20458;-79
2022/06/15 03:45:25;;;;;;;12.17;10.63;;;11.40;97.50;;;;;;5123580;27;20451;-78
2022/06/15 03:47:57;;;;;;;11.93;9.10;;;11.40;97.60;;;;;;5123426;27;20472;-78
2022/06/15 03:50:27;;;;;;;11.37;9.00;;;11.40;97.60;;;;;;5122613;27;20820;-78
2022/06/15 03:53:00;;;;;;;9.67;7.13;;;11.40;97.70;;;;;;5123724;27;20970;-78
2022/06/15 03:55:30;;;;;;;8.30;5.90;;;11.40;97.70;;;;;;5123591;27;20468;-78
2022/06/15 03:57:59;;;;;;;9.13;6.03;;;11.40;97.80;;;;;;5128453;27;20446;-78
2022/06/15 04:00:29;;;;;;;6.10;5.50;;;11.40;97.90;;;;;;5124915;27;20450;-77
2022/06/15 04:03:09;;;;;;;6.90;5.20;;;11.40;97.90;;;;;;5122641;27;20453;-78
2022/06/15 04:05:54;;;;;;;7.60;6.30;;;11.40;98.00;;;;;;5121396;27;20462;-77
2022/06/15 04:08:34;;;;;;;7.20;5.40;;;11.40;98.10;;;;;;5124195;27;20474;-79
2022/06/15 04:14:00;;;;;;;5.97;5.30;;;11.40;98.30;;;;;;5122880;27;20951;-78
2022/06/15 04:16:29;;;;;;;8.60;6.37;;;11.40;98.40;;;;;;5122651;27;20469;-78
2022/06/15 04:19:02;;;;;;;8.10;7.17;;;11.40;98.50;;;;;;5132048;27;20546;-78
2022/06/15 04:21:30;;;;;;;7.67;6.20;;;11.40;98.70;;;;;;5126360;27;20443;-79
2022/06/15 04:23:58;;;;;;;7.93;5.77;;;11.40;98.80;;;;;;5123952;27;20549;-77
2022/06/15 04:26:28;;;;;;;8.63;6.10;;;11.50;99.00;;;;;;5121222;27;20469;-78
2022/06/15 04:28:57;;;;;;;7.03;6.33;;;11.50;99.10;;;;;;5123721;27;20435;-77
2022/06/15 04:31:31;;;;;;;7.13;6.40;;;11.60;99.20;;;;;;5119462;27;20435;-79
2022/06/15 04:34:01;;;;;;;7.97;7.20;;;11.60;99.40;;;;;;5120225;27;20457;-78
2022/06/15 04:36:32;;;;;;;7.60;6.90;;;11.60;99.50;;;;;;5118796;27;20466;-77
2022/06/15 04:39:04;;;;;;;8.20;7.20;;;11.60;99.60;;;;;;5119504;27;20443;-77
2022/06/15 04:41:41;;;;;;;8.00;7.20;;;11.60;99.70;;;;;;5119796;27;20942;-76
2022/06/15 04:44:11;;;;;;;7.73;7.03;;;11.70;99.90;;;;;;5118437;27;20897;-76
2022/06/15 04:46:44;;;;;;;8.67;7.70;;;11.80;99.90;;;;;;5137250;27;20454;-76
2022/06/15 04:49:16;;;;;;;7.93;7.13;;;11.80;99.90;;;;;;5119439;27;20542;-77
2022/06/15 04:51:51;;;;;;;9.97;8.83;;;11.90;99.90;;;;;;5118940;27;20438;-78
2022/06/15 04:54:20;;;;;;;8.90;8.00;;;11.90;99.90;;;;;;5119906;27;20462;-78
2022/06/15 04:56:53;;;;;;;8.83;8.00;;;11.90;99.90;;;;;;5118890;27;20462;-79
2022/06/15 04:59:21;;;;;;;9.70;7.80;;;12.00;99.90;;;;;;5118814;27;20485;-77
2022/06/15 05:01:52;;;;;;;9.00;8.10;;;12.10;99.90;;;;;;5118294;27;20790;-78
2022/06/15 05:04:25;;;;;;;7.80;7.10;;;12.20;99.90;;;;;;5118170;27;20466;-78
2022/06/15 05:06:54;;;;;;;9.30;8.00;;;12.20;99.90;;;;;;5119191;27;20465;-78
2022/06/15 05:09:23;;;;;;;10.60;8.17;;;12.30;99.90;;;;;;5118654;27;20476;-77
2022/06/15 05:11:53;;;;;;;10.10;8.30;;;12.40;99.90;;;;;;5118130;27;20424;-77
2022/06/15 05:14:22;;;;;;;8.83;7.93;;;12.40;99.90;;;;;;5118087;27;20470;-77
2022/06/15 05:16:52;;;;;;;9.20;8.30;;;12.50;99.90;;;;;;5118563;27;20466;-77
2022/06/15 05:19:29;;;;;;;7.60;7.00;;;12.60;99.90;;;;;;5118219;27;20453;-77
2022/06/15 05:21:58;;;;;;;8.30;7.50;;;12.70;99.90;;;;;;5136373;27;20418;-77
2022/06/15 05:24:27;;;;;;;8.23;7.43;;;12.70;99.90;;;;;;5118324;27;20504;-77
2022/06/15 05:27:02;;;;;;;9.70;8.00;;;12.80;99.90;;;;;;5118558;27;20477;-77
2022/06/15 05:29:30;;;;;;;10.20;7.93;;;12.90;99.90;;;;;;5118393;27;20442;-77
2022/06/15 05:32:09;;;;;;;8.73;7.93;;;13.00;99.90;;;;;;5118666;27;20491;-77
2022/06/15 05:34:40;;;;;;;11.50;8.57;;;13.10;99.90;;;;;;5118220;27;20446;-77
2022/06/15 05:37:09;;;;;;;9.33;8.40;;;13.10;99.90;;;;;;5118642;27;20881;-79
2022/06/15 05:39:39;;;;;;;9.13;8.33;;;13.30;99.90;;;;;;5119525;27;20463;-78
2022/06/15 05:42:07;;;;;;;9.87;8.50;;;13.30;99.90;;;;;;5118834;27;20800;-77
2022/06/15 05:47:18;;;;;;;8.70;7.90;;;13.50;99.90;;;;;;5133716;27;20451;-79
2022/06/15 05:50:17;;;;;;;9.90;7.97;;;13.60;99.90;;;;;;5123536;27;20454;-78
2022/06/15 05:53:12;;;;;;;8.60;7.80;;;13.70;99.90;;;;;;5133583;27;20439;-77
2022/06/15 05:55:41;;;;;;;9.57;8.77;;;13.80;99.90;;;;;;5120880;27;20440;-80
2022/06/15 05:58:09;;;;;;;9.87;7.90;;;13.90;99.90;;;;;;5120335;27;20447;-79
2022/06/15 06:00:38;;;;;;;8.23;7.30;;;14.00;99.90;;;;;;5137504;27;20409;-77
2022/06/15 06:03:07;;;;;;;8.30;7.50;;;14.00;99.90;;;;;;5117579;27;20485;-77
2022/06/15 06:05:37;;;;;;;8.07;7.27;;;14.10;99.90;;;;;;5118265;27;20485;-79
2022/06/15 06:08:06;;;;;;;7.20;6.50;;;14.20;99.90;;;;;;5119199;27;21054;-77
2022/06/15 06:10:34;;;;;;;10.27;7.60;;;14.30;99.90;;;;;;5139417;27;20446;-78
2022/06/15 06:13:02;;;;;;;7.37;6.63;;;14.40;99.90;;;;;;5118960;27;20456;-78
2022/06/15 06:15:31;;;;;;;7.53;6.80;;;14.50;99.90;;;;;;5119748;27;20466;-79
2022/06/15 06:18:01;;;;;;;7.60;6.80;;;14.60;99.90;;;;;;5118070;27;20425;-78
2022/06/15 06:20:29;;;;;;;10.17;9.13;;;14.70;99.90;;;;;;5117564;27;20455;-77
2022/06/15 06:22:59;;;;;;;8.20;7.43;;;14.90;99.90;;;;;;5119853;27;20431;-79
2022/06/15 06:25:28;;;;;;;6.73;6.13;;;15.00;99.90;;;;;;5119903;27;20544;-78
2022/06/15 06:27:56;;;;;;;7.63;6.93;;;15.20;99.90;;;;;;5138557;27;20405;-79
2022/06/15 06:30:24;;;;;;;6.20;5.60;;;15.30;99.90;;;;;;5119662;28;20466;-79
2022/06/15 06:32:52;;;;;;;6.07;5.57;;;15.50;99.90;;;;;;5119772;27;20439;-79
2022/06/15 06:35:21;;;;;;;7.80;7.10;;;15.90;99.90;;;;;;5138557;27;20438;-77
2022/06/15 06:37:49;;;;;;;6.00;5.03;;;16.30;99.90;;;;;;5117143;28;20405;-77
2022/06/15 06:40:19;;;;;;;7.23;5.43;;;16.70;99.90;;;;;;5136842;28;20485;-77
2022/06/15 06:42:47;;;;;;;6.50;4.63;;;17.10;99.90;;;;;;5123271;28;20446;-78
2022/06/15 06:45:15;;;;;;;5.10;4.40;;;17.50;99.90;;;;;;5142294;27;20519;-80
2022/06/15 06:47:44;;;;;;;4.43;4.00;;;17.80;99.90;;;;;;5125452;27;20537;-78
2022/06/15 06:50:12;;;;;;;3.50;3.20;;;18.10;99.90;;;;;;5125430;27;20450;-78
2022/06/15 06:52:41;;;;;;;4.97;3.50;;;18.40;99.90;;;;;;5125820;27;20442;-78
2022/06/15 06:55:10;;;;;;;4.80;2.73;;;18.70;99.90;;;;;;5123666;27;20486;-77
2022/06/15 06:57:39;;;;;;;4.00;2.73;;;18.90;99.90;;;;;;5142428;27;20485;-77
2022/06/15 07:00:09;;;;;;;3.33;2.93;;;19.20;99.90;;;;;;5123789;27;20958;-77
2022/06/15 07:02:37;;;;;;;4.50;3.13;;;19.50;99.90;;;;;;5142318;27;20442;-77
2022/06/15 07:05:07;;;;;;;3.60;2.77;;;19.70;99.90;;;;;;5144937;27;20454;-77
2022/06/15 07:07:35;;;;;;;5.00;3.07;;;20.00;99.90;;;;;;5143153;27;20438;-78
2022/06/15 07:10:04;;;;;;;4.80;2.33;;;20.20;99.90;;;;;;5140868;27;20462;-77
2022/06/15 07:12:33;;;;;;;7.20;3.53;;;20.40;99.90;;;;;;5142897;27;20422;-77
2022/06/15 07:15:03;;;;;;;3.00;2.30;;;20.60;99.90;;;;;;5124538;27;20434;-79
2022/06/15 07:17:32;;;;;;;5.37;2.20;;;20.80;99.80;;;;;;5142948;27;20418;-77
2022/06/15 07:20:00;;;;;;;3.73;2.50;;;21.00;99.40;;;;;;5144002;27;20491;-77
2022/06/15 07:22:28;;;;;;;3.40;1.97;;;21.20;99.00;;;;;;5145523;27;20469;-78
2022/06/15 07:24:57;;;;;;;5.80;2.30;;;21.40;98.50;;;;;;5130846;27;20462;-79
2022/06/15 07:27:25;;;;;;;6.00;3.73;;;21.50;98.40;;;;;;5141552;27;20496;-79
2022/06/15 07:29:55;;;;;;;4.10;2.00;;;21.70;98.20;;;;;;5161190;27;20442;-78
2022/06/15 07:32:25;;;;;;;3.40;1.70;;;21.90;98.20;;;;;;5142797;27;20957;-79
2022/06/15 07:34:53;;;;;;;2.77;2.20;;;22.00;97.50;;;;;;5151399;27;20446;-79
2022/06/15 07:37:21;;;;;;;4.57;2.20;;;22.10;97.40;;;;;;5150234;27;20486;-79
2022/06/15 07:40:11;;;;;;;4.80;2.20;;;22.30;96.90;;;;;;5147246;27;20426;-79
2022/06/15 07:42:40;;;;;;;3.37;2.40;;;22.40;96.50;;;;;;5146685;27;20520;-79
2022/06/15 07:45:10;;;;;;;3.13;1.90;;;22.50;96.00;;;;;;5147075;27;20476;-79
2022/06/15 07:50:26;;;;;;;2.80;1.70;;;22.80;95.50;;;;;;5125224;27;20442;-79
2022/06/15 07:53:01;;;;;;;3.73;2.40;;;22.90;94.70;;;;;;5127956;27;20823;-79
2022/06/15 07:55:32;;;;;;;4.40;2.40;;;22.90;94.40;;;;;;5145609;27;20455;-81
2022/06/15 07:58:01;;;;;;;4.17;2.17;;;23.00;94.00;;;;;;5145300;27;20427;-79
2022/06/15 08:00:31;;;;;;;3.23;2.03;;;23.00;93.70;;;;;;5126818;27;20443;-78
2022/06/15 08:03:01;;;;;;;3.00;1.90;;;23.10;93.40;;;;;;5143471;27;20468;-78
2022/06/15 08:05:32;;;;;;;3.90;2.20;;;23.20;92.90;;;;;;5124263;27;20519;-78
2022/06/15 08:08:25;;;;;;;3.57;1.93;;;23.20;92.70;;;;;;5123199;27;20449;-78
2022/06/15 08:10:53;;;;;;;3.50;1.70;;;23.20;92.60;;;;;;5141443;27;20434;-78
2022/06/15 08:13:21;;;;;;;3.27;1.70;;;23.30;92.50;;;;;;5122930;27;20446;-78
2022/06/15 08:15:52;;;;;;;2.47;2.10;;;23.30;92.00;;;;;;5123383;27;20459;-80
2022/06/15 08:18:26;;;;;;;3.50;2.17;;;23.40;91.70;;;;;;5123478;27;20529;-79
2022/06/15 08:20:57;;;;;;;3.00;2.20;;;23.50;91.50;;;;;;5146987;27;20479;-77
2022/06/15 08:23:29;;;;;;;3.00;1.87;;;23.60;91.40;;;;;;5136804;27;20492;-78
2022/06/15 08:26:01;;;;;;;3.63;1.70;;;23.60;90.70;;;;;;5118766;28;20467;-78
2022/06/15 08:28:33;;;;;;;4.33;1.80;;;23.50;90.10;;;;;;5102509;28;20518;-79
2022/06/15 08:31:01;;;;;;;3.17;2.10;;;23.50;90.00;;;;;;5103001;28;20925;-80
2022/06/15 08:33:30;;;;;;;3.90;2.60;;;23.50;90.00;;;;;;5122141;28;20442;-79
2022/06/15 08:35:59;;;;;;;3.83;2.07;;;23.60;89.60;;;;;;5122086;28;20541;-78
2022/06/15 08:38:36;;;;;;;3.63;1.93;;;23.70;89.40;;;;;;5104315;28;20533;-78
2022/06/15 08:41:08;;;;;;;3.50;2.67;;;23.80;89.00;;;;;;5120340;28;20896;-80
2022/06/15 08:43:50;;;;;;;2.87;2.43;;;23.90;88.90;;;;;;5121559;28;20885;-80
2022/06/15 08:46:27;;;;;;;3.13;2.20;;;24.00;88.30;;;;;;5120362;28;20475;-79
2022/06/15 08:49:12;;;;;;;2.33;1.83;;;24.00;88.10;;;;;;5101389;28;20459;-78
2022/06/15 08:51:44;;;;;;;3.00;2.37;;;24.10;88.00;;;;;;5122883;28;20438;-79
2022/06/15 08:54:18;;;;;;;4.60;2.67;;;24.10;87.80;;;;;;5137279;27;20436;-79
2022/06/15 08:56:51;;;;;;;2.87;1.87;;;24.20;86.70;;;;;;5102250;28;20605;-80
2022/06/15 08:59:28;;;;;;;3.47;1.97;;;24.20;86.60;;;;;;5136476;27;20443;-78
2022/06/15 09:02:12;;;;;;;5.40;2.30;;;24.20;87.00;;;;;;5120556;28;20463;-79
2022/06/15 09:04:57;;;;;;;6.60;2.33;;;24.30;86.70;;;;;;5123417;28;20458;-79
2022/06/15 09:07:48;;;;;;;5.80;2.23;;;24.30;86.30;;;;;;5120307;28;20471;-80
2022/06/15 09:10:37;;;;;;;3.73;2.57;;;24.30;86.40;;;;;;5136348;27;20420;-79
2022/06/15 09:13:22;;;;;;;4.70;2.80;;;24.40;86.20;;;;;;5121657;28;20752;-80
2022/06/15 09:15:59;;;;;;;5.57;2.87;;;24.50;85.70;;;;;;5121696;28;20451;-78
2022/06/15 09:18:33;;;;;;;6.13;2.63;;;24.50;85.30;;;;;;5119803;28;20484;-79
2022/06/15 09:21:10;;;;;;;3.10;2.73;;;24.50;85.70;;;;;;5118768;28;20462;-77
2022/06/15 09:23:50;;;;;;;5.60;2.63;;;24.50;85.60;;;;;;5118816;28;20427;-79
2022/06/15 09:26:23;;;;;;;2.27;2.07;;;24.60;85.30;;;;;;5119425;28;20478;-80
2022/06/15 09:28:57;;;;;;;2.77;2.50;;;24.70;85.20;;;;;;5135675;27;20432;-79
2022/06/15 09:31:28;;;;;;;4.60;3.07;;;24.60;85.30;;;;;;5121572;28;20518;-80
2022/06/15 09:34:00;;;;;;;4.03;2.90;;;24.70;84.30;;;;;;5120857;28;20768;-79
2022/06/15 09:36:34;;;;;;;3.93;2.60;;;24.70;84.20;;;;;;5101041;28;20468;-79
2022/06/15 09:39:04;;;;;;;7.70;2.57;;;24.60;84.00;;;;;;5119629;28;20954;-78
2022/06/15 09:41:41;;;;;;;5.73;2.57;;;24.60;83.70;;;;;;5119147;28;20478;-78
2022/06/15 09:44:22;;;;;;;3.13;2.47;;;24.50;83.80;;;;;;5134306;27;20435;-78
2022/06/15 09:47:23;;;;;;;4.10;2.83;;;24.40;83.10;;;;;;5135527;27;20847;-79
2022/06/15 09:49:59;;;;;;;8.33;2.50;;;24.40;83.10;;;;;;5119489;28;20435;-80
2022/06/15 09:52:39;;;;;;;4.43;2.80;;;24.40;83.30;;;;;;5118808;28;20445;-79
2022/06/15 09:55:11;;;;;;;4.80;2.77;;;24.50;83.00;;;;;;5099998;28;20928;-79
2022/06/15 09:57:42;;;;;;;4.63;2.60;;;24.50;83.10;;;;;;5134687;27;20436;-78
2022/06/15 10:00:15;;;;;;;4.13;2.37;;;24.40;82.70;;;;;;5118618;28;20817;-81
2022/06/15 10:02:46;;;;;;;5.60;3.67;;;24.40;82.50;;;;;;5117400;28;20447;-78
2022/06/15 10:05:23;;;;;;;4.90;3.40;;;24.50;82.10;;;;;;5117571;28;20774;-78
2022/06/15 10:07:56;;;;;;;4.17;2.60;;;24.50;81.00;;;;;;5099456;28;20455;-79
2022/06/15 10:10:28;;;;;;;5.60;2.90;;;24.40;81.00;;;;;;5099173;28;20445;-79
2022/06/15 10:12:59;;;;;;;4.80;2.83;;;24.40;80.90;;;;;;5099228;28;20443;-79
2022/06/15 10:15:32;;;;;;;7.73;2.80;;;24.50;80.60;;;;;;5098395;28;20467;-80
2022/06/15 10:18:15;;;;;;;7.20;2.97;;;24.50;80.80;;;;;;5098662;28;20438;-79
2022/06/15 10:20:58;;;;;;;6.93;2.90;;;24.60;81.30;;;;;;5116997;28;20419;-78
2022/06/15 10:23:39;;;;;;;3.17;2.87;;;24.80;81.40;;;;;;5099465;28;20504;-81
2022/06/15 10:26:10;;;;;;;5.77;2.93;;;24.90;81.10;;;;;;5098722;28;20506;-78
2022/06/15 10:28:41;;;;;;;4.17;2.97;;;24.90;80.80;;;;;;5115744;28;20780;-77
2022/06/15 10:31:14;;;;;;;4.73;3.03;;;24.90;80.20;;;;;;5116533;28;20436;-76
2022/06/15 10:33:46;;;;;;;5.00;4.03;;;24.90;79.80;;;;;;5115823;28;20442;-77
2022/06/15 10:36:21;;;;;;;3.00;2.70;;;24.90;79.80;;;;;;5097146;28;20839;-77
2022/06/15 10:38:55;;;;;;;6.80;3.10;;;24.90;79.70;;;;;;5099420;28;20435;-76
2022/06/15 10:41:48;;;;;;;4.30;3.50;;;24.90;80.00;;;;;;5117104;28;20433;-79
2022/06/15 10:44:27;;;;;;;4.40;2.70;;;24.90;79.70;;;;;;5100470;28;20459;-78
2022/06/15 10:47:01;;;;;;;4.63;3.03;;;24.80;79.60;;;;;;5118189;28;20839;-78
2022/06/15 10:49:34;;;;;;;5.03;2.90;;;24.70;79.70;;;;;;5097126;28;20443;-77
2022/06/15 10:52:04;;;;;;;4.83;3.37;;;24.70;79.30;;;;;;5098431;28;20462;-77
2022/06/15 11:02:06;;;;;;;5.43;2.80;;;24.70;78.70;;;;;;5098414;28;20483;-76
2022/06/15 11:03:15;;;;;;;5.40;3.33;;;24.70;78.20;;;;;;5098721;28;20504;-83
2022/06/15 11:05:46;;;;;;;4.50;2.90;;;24.70;78.20;;;;;;5133430;28;20558;-77
2022/06/15 11:08:18;;;;;;;5.57;3.10;;;24.80;78.40;;;;;;5116249;28;20538;-77
2022/06/15 11:10:50;;;;;;;5.57;3.10;;;24.80;78.20;;;;;;5097529;28;20987;-78
2022/06/15 11:13:30;;;;;;;5.93;3.27;;;24.90;77.70;;;;;;5096782;28;20924;-77
2022/06/15 11:19:05;;;;;;;5.90;3.03;;;24.80;77.20;;;;;;5097500;28;20453;-76
2022/06/15 11:21:40;;;;;;;5.43;2.97;;;24.80;77.50;;;;;;5115155;28;20975;-77
2022/06/15 11:24:18;;;;;;;6.90;5.17;;;24.90;78.20;;;;;;5116127;28;20453;-78
2022/06/15 11:26:54;;;;;;;3.83;2.83;;;25.00;78.60;;;;;;5115518;28;20455;-77
2022/06/15 11:29:46;;;;;;;6.30;3.23;;;25.10;78.20;;;;;;5116380;28;20514;-78
2022/06/15 11:32:24;;;;;;;4.43;3.03;;;25.10;77.80;;;;;;5099863;28;20822;-78
2022/06/15 11:34:58;;;;;;;4.40;3.30;;;25.20;77.50;;;;;;5120658;28;20438;-78
2022/06/15 11:37:31;;;;;;;3.53;3.23;;;25.20;77.70;;;;;;5122016;28;21033;-80
2022/06/15 11:40:08;;;;;;;3.30;2.73;;;25.20;76.80;;;;;;5103458;28;20445;-77
2022/06/15 11:42:38;;;;;;;7.67;2.90;;;25.10;76.70;;;;;;5121631;28;20439;-76
2022/06/15 11:45:14;;;;;;;7.07;2.63;;;25.10;76.90;;;;;;5121475;28;20434;-77
2022/06/15 11:47:56;;;;;;;5.00;2.77;;;25.10;76.70;;;;;;5119063;28;20462;-77
2022/06/15 11:50:34;;;;;;;4.40;3.23;;;25.10;76.40;;;;;;5139522;27;20439;-79
2022/06/15 11:53:15;;;;;;;5.30;3.07;;;25.10;76.10;;;;;;5120817;28;20422;-78
2022/06/15 11:55:59;;;;;;;2.77;2.50;;;25.10;76.00;;;;;;5105004;28;20467;-78
2022/06/15 11:58:36;;;;;;;3.97;3.07;;;25.00;76.00;;;;;;5102618;28;20439;-78
2022/06/15 12:01:20;;;;;;;6.07;3.43;;;25.10;75.90;;;;;;5103554;28;20522;-78
2022/06/15 12:04:23;;;;;;;7.37;3.20;;;25.10;75.60;;;;;;5139393;27;20461;-78
2022/06/15 12:07:01;;;;;;;3.33;3.03;;;25.00;75.50;;;;;;5106294;28;20463;-78
2022/06/15 12:09:40;;;;;;;4.90;3.33;;;25.10;75.60;;;;;;5122091;28;20450;-77
2022/06/15 12:15:08;;;;;;;3.87;2.90;;;25.10;75.60;;;;;;5126747;28;20439;-80
2022/06/15 12:17:41;;;;;;;3.50;2.80;;;25.20;75.20;;;;;;5125974;28;20849;-80
2022/06/15 12:20:18;;;;;;;3.50;2.60;;;25.20;75.40;;;;;;5124577;28;20455;-78
2022/06/15 12:22:51;;;;;;;3.43;3.10;;;25.20;75.60;;;;;;5124456;28;20482;-79
2022/06/15 12:25:27;;;;;;;4.13;2.43;;;25.20;75.80;;;;;;5105035;28;20439;-78
2022/06/15 12:28:00;;;;;;;7.40;3.07;;;25.30;75.90;;;;;;5105197;28;20462;-78
2022/06/15 12:30:38;;;;;;;3.80;3.30;;;25.30;75.60;;;;;;5102680;28;20533;-77
2022/06/15 12:33:16;;;;;;;6.30;3.33;;;25.30;75.70;;;;;;5123844;28;20419;-78
2022/06/15 12:35:49;;;;;;;5.63;3.60;;;25.30;75.50;;;;;;5124037;28;20446;-80
2022/06/15 12:38:25;;;;;;;5.30;2.97;;;25.30;75.50;;;;;;5126384;28;20435;-82
2022/06/15 12:41:06;;;;;;;6.17;2.90;;;25.30;75.60;;;;;;5124542;28;20418;-80
2022/06/15 12:43:43;;;;;;;5.53;3.27;;;25.30;75.50;;;;;;5101073;28;20435;-80
2022/06/15 12:46:16;;;;;;;9.50;3.30;;;25.30;75.30;;;;;;5120173;28;20976;-80
2022/06/15 12:48:54;;;;;;;3.20;2.87;;;25.30;75.10;;;;;;5103027;28;20873;-81
2022/06/15 12:51:35;;;;;;;3.83;2.70;;;25.30;74.90;;;;;;5138434;27;20432;-79
2022/06/15 12:54:12;;;;;;;9.30;3.30;;;25.30;74.60;;;;;;5101697;28;20436;-79
2022/06/15 12:56:47;;;;;;;10.00;2.70;;;25.30;74.90;;;;;;5120968;28;20553;-78
2022/06/15 12:59:26;;;;;;;4.80;2.93;;;25.30;74.80;;;;;;5101740;28;20443;-78
2022/06/15 13:02:09;;;;;;;5.83;2.60;;;25.30;74.70;;;;;;5120140;28;20525;-75
2022/06/15 13:04:45;;;;;;;5.13;3.43;;;25.20;74.70;;;;;;5102131;28;20475;-80
2022/06/15 13:07:20;;;;;;;5.87;2.60;;;25.30;74.80;;;;;;5119495;28;20806;-78
2022/06/15 13:10:18;;;;;;;5.73;2.87;;;25.30;74.40;;;;;;5120320;28;20862;-79
2022/06/15 13:12:50;;;;;;;4.20;3.20;;;25.30;73.90;;;;;;5092538;28;21008;-79
2022/06/15 13:15:23;;;;;;;4.53;2.70;;;25.30;74.00;;;;;;5120595;28;20443;-80
2022/06/15 13:18:12;;;;;;;4.90;2.90;;;25.30;73.90;;;;;;5122342;28;20416;-79
2022/06/15 13:21:00;;;;;;;4.47;2.20;;;25.30;73.80;;;;;;5120896;28;20469;-78
2022/06/15 13:23:32;;;;;;;5.63;2.70;;;25.30;74.00;;;;;;5101838;28;20443;-80
2022/06/15 13:26:08;;;;;;;4.83;2.40;;;25.30;74.40;;;;;;5098920;28;20473;-80
2022/06/15 13:28:40;;;;;;;4.47;2.73;;;25.40;74.60;;;;;;5133507;27;20498;-80
2022/06/15 13:31:11;;;;;;;5.20;2.40;;;25.50;74.30;;;;;;5100029;28;20475;-80
2022/06/15 13:33:59;;;;;;;5.53;2.33;;;25.50;73.80;;;;;;5100593;28;20440;-79
2022/06/15 13:36:29;;;;;;;3.87;2.77;;;25.60;73.80;;;;;;5100166;28;20510;-79
2022/06/15 13:38:58;;;;;;;3.80;2.73;;;25.60;74.10;;;;;;5134681;27;20534;-80